createdAt,value
2019-03-02T00:02:01.852Z,18.77
2019-03-02T00:04:31.510Z,17.47
2019-03-02T00:07:01.012Z,17.27
2019-03-02T00:09:31.847Z,17.60
2019-03-02T00:12:01.973Z,18.23
2019-03-02T00:14:31.638Z,17.27
2019-03-02T00:17:01.645Z,17.63
2019-03-02T00:19:30.844Z,18.03
2019-03-02T00:22:06.551Z,19.03
2019-03-02T00:24:32.722Z,18.93
2019-03-02T00:27:02.010Z,18.30
2019-03-02T00:29:31.285Z,18.10
2019-03-02T00:32:00.593Z,19.20
2019-03-02T00:34:32.162Z,18.70
2019-03-02T00:37:02.138Z,18.57
2019-03-02T00:39:31.813Z,19.47
2019-03-02T00:42:01.145Z,18.73
2019-03-02T00:44:30.423Z,19.97
2019-03-02T00:47:00.496Z,19.37
2019-03-02T00:49:29.748Z,18.73
2019-03-02T00:51:59.111Z,19.23
2019-03-02T00:54:28.495Z,18.87
2019-03-02T00:56:57.872Z,18.70
2019-03-02T00:59:27.255Z,18.80
2019-03-02T01:01:56.881Z,18.67
2019-03-02T01:04:26.899Z,18.77
2019-03-02T01:06:56.431Z,20.20
2019-03-02T01:09:25.671Z,20.23
2019-03-02T01:11:55.021Z,19.13
2019-03-02T01:14:24.492Z,20.40
2019-03-02T01:16:55.167Z,20.13
2019-03-02T01:19:24.713Z,20.63
2019-03-02T01:21:54.444Z,21.27
2019-03-02T01:24:23.759Z,21.10
2019-03-02T01:26:55.706Z,21.83
2019-03-02T01:29:24.047Z,24.00
2019-03-02T01:31:53.365Z,23.77
2019-03-02T01:34:22.699Z,25.07
2019-03-02T01:36:52.609Z,24.60
2019-03-02T01:39:22.198Z,24.40
2019-03-02T01:41:53.955Z,25.43
2019-03-02T01:44:22.511Z,27.07
2019-03-02T01:46:51.950Z,25.93
2019-03-02T01:49:22.191Z,28.10
2019-03-02T01:51:54.734Z,27.10
2019-03-02T01:54:22.753Z,28.00
2019-03-02T01:56:52.089Z,28.10
2019-03-02T01:59:23.590Z,29.00
2019-03-02T02:01:52.968Z,29.33
2019-03-02T02:04:22.693Z,28.93
2019-03-02T02:06:53.189Z,29.57
2019-03-02T02:09:22.925Z,28.90
2019-03-02T02:11:53.304Z,29.97
2019-03-02T02:14:23.584Z,31.00
2019-03-02T02:16:52.911Z,32.33
2019-03-02T02:19:22.188Z,31.40
2019-03-02T02:21:51.732Z,31.47
2019-03-02T02:24:21.715Z,32.07
2019-03-02T02:26:52.408Z,34.30
2019-03-02T02:29:21.704Z,34.60
2019-03-02T02:31:51.015Z,35.30
2019-03-02T02:34:22.233Z,35.93
2019-03-02T02:36:53.103Z,34.73
2019-03-02T02:39:22.752Z,33.83
2019-03-02T02:41:51.978Z,35.33
2019-03-02T02:44:21.492Z,34.20
2019-03-02T02:46:50.790Z,34.17
2019-03-02T02:49:20.133Z,37.43
2019-03-02T02:51:50.409Z,36.27
2019-03-02T02:54:23.345Z,35.30
2019-03-02T02:56:54.215Z,36.50
2019-03-02T02:59:22.083Z,36.07
2019-03-02T03:01:51.464Z,36.00
2019-03-02T03:04:20.737Z,36.43
2019-03-02T03:06:50.496Z,36.03
2019-03-02T03:09:45.354Z,36.17
2019-03-02T03:12:11.618Z,36.40
2019-03-02T03:14:41.261Z,37.47
2019-03-02T03:17:11.156Z,36.73
2019-03-02T03:19:40.424Z,36.87
2019-03-02T03:22:10.001Z,38.23
2019-03-02T03:24:40.633Z,38.53
2019-03-02T03:27:13.241Z,39.47
2019-03-02T03:29:44.557Z,38.80
2019-03-02T03:32:15.562Z,39.97
2019-03-02T03:34:44.800Z,40.40
2019-03-02T03:37:14.996Z,39.20
2019-03-02T03:39:46.515Z,39.70
2019-03-02T03:42:22.262Z,39.70
2019-03-02T03:44:47.722Z,41.97
2019-03-02T03:47:17.524Z,42.90
2019-03-02T03:49:46.914Z,41.80
2019-03-02T03:52:16.569Z,40.70
2019-03-02T03:54:46.504Z,41.93
2019-03-02T03:57:17.111Z,41.07
2019-03-02T03:59:46.961Z,40.43
2019-03-02T04:02:16.251Z,40.53
2019-03-02T04:04:45.623Z,42.13
2019-03-02T04:07:15.073Z,40.67
2019-03-02T04:09:46.837Z,39.57
2019-03-02T04:12:19.920Z,42.23
2019-03-02T04:14:47.073Z,41.90
2019-03-02T04:17:17.045Z,39.80
2019-03-02T04:19:46.734Z,41.30
2019-03-02T04:22:16.500Z,43.10
2019-03-02T04:24:46.177Z,41.23
2019-03-02T04:27:17.105Z,41.70
2019-03-02T04:29:49.897Z,41.93
2019-03-02T04:32:17.919Z,44.00
2019-03-02T04:34:47.241Z,42.10
2019-03-02T04:37:20.270Z,43.70
2019-03-02T04:39:49.996Z,42.60
2019-03-02T04:42:18.916Z,43.97
2019-03-02T04:44:49.283Z,42.40
2019-03-02T04:47:18.535Z,43.70
2019-03-02T04:49:51.375Z,44.40
2019-03-02T04:52:18.753Z,42.37
2019-03-02T04:54:49.649Z,43.27
2019-03-02T04:57:18.941Z,43.13
2019-03-02T04:59:48.278Z,44.30
2019-03-02T05:02:19.639Z,43.63
2019-03-02T05:04:50.278Z,43.50
2019-03-02T05:07:19.542Z,43.87
2019-03-02T05:09:52.134Z,45.23
2019-03-02T05:12:21.134Z,44.03
2019-03-02T05:14:50.404Z,41.43
2019-03-02T05:17:19.677Z,43.37
2019-03-02T05:19:48.924Z,43.37
2019-03-02T05:22:18.791Z,42.93
2019-03-02T05:24:48.929Z,42.50
2019-03-02T05:27:18.174Z,41.40
2019-03-02T05:29:50.646Z,41.17
2019-03-02T05:32:19.679Z,40.97
2019-03-02T05:34:49.659Z,38.63
2019-03-02T05:37:18.941Z,39.33
2019-03-02T05:39:49.582Z,40.37
2019-03-02T05:42:19.769Z,39.47
2019-03-02T05:44:51.782Z,39.83
2019-03-02T05:47:21.776Z,38.67
2019-03-02T05:49:54.515Z,38.40
2019-03-02T05:52:22.363Z,36.70
2019-03-02T05:54:51.977Z,37.07
2019-03-02T05:57:21.315Z,37.83
2019-03-02T05:59:50.579Z,36.13
2019-03-02T06:02:19.840Z,36.80
2019-03-02T06:04:49.138Z,36.13
2019-03-02T06:07:18.484Z,35.97
2019-03-02T06:09:50.199Z,35.03
2019-03-02T06:12:19.101Z,36.00
2019-03-02T06:14:48.370Z,36.27
2019-03-02T06:17:17.640Z,36.27
2019-03-02T06:19:47.473Z,34.83
2019-03-02T06:22:17.626Z,35.07
2019-03-02T06:24:48.084Z,35.07
2019-03-02T06:27:17.321Z,37.63
2019-03-02T06:29:46.594Z,33.97
2019-03-02T06:32:15.805Z,35.37
2019-03-02T06:34:45.179Z,35.23
2019-03-02T06:37:17.080Z,33.87
2019-03-02T06:39:45.356Z,34.47
2019-03-02T06:42:14.604Z,34.97
2019-03-02T06:44:43.864Z,33.13
2019-03-02T06:47:13.140Z,33.97
2019-03-02T06:49:42.948Z,33.73
2019-03-02T06:52:12.316Z,32.40
2019-03-02T06:54:44.871Z,32.63
2019-03-02T06:57:14.103Z,33.67
2019-03-02T06:59:44.465Z,31.90
2019-03-02T07:02:13.920Z,32.93
2019-03-02T07:04:43.269Z,31.83
2019-03-02T07:07:12.912Z,32.90
2019-03-02T07:09:45.324Z,32.93
2019-03-02T07:12:13.304Z,32.87
2019-03-02T07:14:42.937Z,32.70
2019-03-02T07:17:12.364Z,31.13
2019-03-02T07:19:48.621Z,31.93
2019-03-02T07:22:19.033Z,30.67
2019-03-02T07:24:48.380Z,30.20
2019-03-02T07:27:17.615Z,31.77
2019-03-02T07:29:49.881Z,30.60
2019-03-02T07:32:17.817Z,31.30
2019-03-02T07:34:47.204Z,30.03
2019-03-02T07:37:16.503Z,29.67
2019-03-02T07:39:45.981Z,30.57
2019-03-02T07:42:16.252Z,30.00
2019-03-02T07:44:45.559Z,30.03
2019-03-02T07:47:14.854Z,28.50
2019-03-02T07:49:46.195Z,27.90
2019-03-02T07:52:17.160Z,27.07
2019-03-02T07:54:56.022Z,30.10
2019-03-02T07:57:17.751Z,27.27
2019-03-02T07:59:47.458Z,27.67
2019-03-02T08:02:16.731Z,28.30
2019-03-02T08:04:46.376Z,27.93
2019-03-02T08:07:15.649Z,27.07
2019-03-02T08:09:44.982Z,26.90
2019-03-02T08:12:14.307Z,25.87
2019-03-02T08:14:44.459Z,25.90
2019-03-02T08:17:14.531Z,26.47
2019-03-02T08:19:44.665Z,24.07
2019-03-02T08:22:14.887Z,26.70
2019-03-02T08:24:44.769Z,25.87
2019-03-02T08:27:14.209Z,24.80
2019-03-02T08:29:43.504Z,26.07
2019-03-02T08:32:12.883Z,26.37
2019-03-02T08:34:46.423Z,24.60
2019-03-02T08:37:14.135Z,24.57
2019-03-02T08:39:46.660Z,25.67
2019-03-02T08:42:14.841Z,24.90
2019-03-02T08:44:44.569Z,24.47
2019-03-02T08:47:15.602Z,25.77
2019-03-02T08:49:47.731Z,25.63
2019-03-02T08:52:17.106Z,23.97
2019-03-02T08:54:47.518Z,24.90
2019-03-02T08:57:23.136Z,26.27
2019-03-02T08:59:52.474Z,24.83
2019-03-02T09:02:22.558Z,25.07
2019-03-02T09:04:54.628Z,24.63
2019-03-02T09:07:23.845Z,24.33
2019-03-02T09:09:53.501Z,23.33
2019-03-02T09:12:26.348Z,22.73
2019-03-02T09:14:56.092Z,23.30
2019-03-02T09:17:25.428Z,22.10
2019-03-02T09:19:55.809Z,23.50
2019-03-02T09:22:26.638Z,22.87
2019-03-02T09:24:59.279Z,22.87
2019-03-02T09:27:28.848Z,22.30
2019-03-02T09:29:59.028Z,22.00
2019-03-02T09:32:29.418Z,20.97
2019-03-02T09:34:58.672Z,22.70
2019-03-02T09:37:27.964Z,20.57
2019-03-02T09:39:57.360Z,20.97
2019-03-02T09:42:26.908Z,23.00
2019-03-02T09:44:56.392Z,21.90
2019-03-02T09:47:26.227Z,20.57
2019-03-02T09:49:55.605Z,19.97
2019-03-02T09:52:24.958Z,20.43
2019-03-02T09:54:54.302Z,19.40
2019-03-02T09:57:23.751Z,19.47
2019-03-02T09:59:53.032Z,19.47
2019-03-02T10:02:22.328Z,19.03
2019-03-02T10:04:51.900Z,19.33
2019-03-02T10:07:23.549Z,19.30
2019-03-02T10:09:52.292Z,17.93
2019-03-02T10:12:21.501Z,18.07
2019-03-02T10:14:50.734Z,18.27
2019-03-02T10:17:20.027Z,17.50
2019-03-02T10:19:49.330Z,19.03
2019-03-02T10:22:19.773Z,17.93
2019-03-02T10:24:49.795Z,18.37
2019-03-02T10:27:22.410Z,18.03
2019-03-02T10:29:51.862Z,16.73
2019-03-02T10:32:21.273Z,16.77
2019-03-02T10:34:50.564Z,16.30
2019-03-02T10:37:19.829Z,17.10
2019-03-02T10:39:49.101Z,17.03
2019-03-02T10:42:18.396Z,17.70
2019-03-02T10:44:47.758Z,17.77
2019-03-02T10:47:17.248Z,16.90
2019-03-02T10:49:48.402Z,17.50
2019-03-02T10:52:17.867Z,18.20
2019-03-02T10:54:47.547Z,16.93
2019-03-02T10:57:16.841Z,16.37
2019-03-02T10:59:47.804Z,16.87
2019-03-02T11:02:20.067Z,17.73
2019-03-02T11:05:07.515Z,17.47
2019-03-02T11:07:44.641Z,16.77
2019-03-02T11:10:34.953Z,16.40
2019-03-02T11:13:20.654Z,14.37
2019-03-02T11:16:21.412Z,14.37
2019-03-02T11:19:25.040Z,14.03
2019-03-02T11:22:15.162Z,14.00
2019-03-02T11:24:59.261Z,13.60
2019-03-02T11:27:41.690Z,13.90
2019-03-02T11:30:33.284Z,14.87
2019-03-02T11:33:20.169Z,13.53
2019-03-02T11:35:58.594Z,12.77
2019-03-02T11:38:37.183Z,13.00
2019-03-02T11:41:26.677Z,12.90
2019-03-02T11:44:14.015Z,12.93
2019-03-02T11:46:52.924Z,11.20
2019-03-02T11:49:40.831Z,10.17
2019-03-02T11:52:34.961Z,10.17
2019-03-02T11:55:21.528Z,10.03
2019-03-02T11:58:29.792Z,9.70
2019-03-02T12:01:11.658Z,8.67
2019-03-02T12:03:58.787Z,9.07
2019-03-02T12:07:05.410Z,8.63
2019-03-02T12:09:53.472Z,9.47
2019-03-02T12:12:33.823Z,10.10
2019-03-02T12:15:25.117Z,10.80
2019-03-02T12:18:09.271Z,11.53
2019-03-02T12:21:08.268Z,8.87
2019-03-02T12:23:52.589Z,8.57
2019-03-02T12:26:34.231Z,8.67
2019-03-02T12:29:25.760Z,8.97
2019-03-02T12:32:20.142Z,9.10
2019-03-02T12:35:04.046Z,8.70
2019-03-02T12:38:07.168Z,8.43
2019-03-02T12:40:53.325Z,8.57
2019-03-02T12:43:44.220Z,9.27
2019-03-02T12:46:20.165Z,9.87
2019-03-02T12:49:06.952Z,8.83
2019-03-02T12:52:05.841Z,8.77
2019-03-02T12:54:43.338Z,8.13
2019-03-02T12:57:34.404Z,8.57
2019-03-02T13:00:29.452Z,8.30
2019-03-02T13:03:27.219Z,8.33
2019-03-02T13:06:19.524Z,8.93
2019-03-02T13:09:06.099Z,8.60
2019-03-02T13:11:55.199Z,8.37
2019-03-02T13:14:38.791Z,8.17
2019-03-02T13:17:27.631Z,8.20
2019-03-02T13:20:17.005Z,7.67
2019-03-02T13:23:14.368Z,7.13
2019-03-02T13:26:13.672Z,7.60
2019-03-02T13:29:00.994Z,8.27
2019-03-02T13:31:47.292Z,7.97
2019-03-02T13:34:28.357Z,8.00
2019-03-02T13:37:22.987Z,7.03
2019-03-02T13:40:02.775Z,6.77
2019-03-02T13:42:57.029Z,8.13
2019-03-02T13:45:45.903Z,7.53
2019-03-02T13:48:26.736Z,7.83
2019-03-02T13:51:02.803Z,8.10
2019-03-02T13:54:03.775Z,7.83
2019-03-02T13:56:52.149Z,7.53
2019-03-02T13:59:38.616Z,7.17
2019-03-02T14:02:35.194Z,7.37
2019-03-02T14:05:29.883Z,8.23
2019-03-02T14:08:13.525Z,7.20
2019-03-02T14:11:02.827Z,7.70
2019-03-02T14:13:48.177Z,7.23
2019-03-02T14:16:36.349Z,7.73
2019-03-02T14:19:23.743Z,7.93
2019-03-02T14:22:16.758Z,7.80
2019-03-02T14:25:06.159Z,7.97
2019-03-02T14:28:00.738Z,6.87
2019-03-02T14:30:40.015Z,6.83
2019-03-02T14:33:31.507Z,7.73
2019-03-02T14:36:18.459Z,8.00
2019-03-02T14:39:12.985Z,9.10
2019-03-02T14:42:03.903Z,9.43
2019-03-02T14:44:53.260Z,7.50
2019-03-02T14:47:29.349Z,7.57
2019-03-02T14:50:06.351Z,8.37
2019-03-02T14:52:56.821Z,6.87
2019-03-02T14:55:54.490Z,7.40
2019-03-02T14:58:45.996Z,7.33
2019-03-02T15:01:52.916Z,8.17
2019-03-02T15:04:39.158Z,6.80
2019-03-02T15:07:26.528Z,8.00
2019-03-02T15:10:07.328Z,9.00
2019-03-02T15:12:54.596Z,9.20
2019-03-02T15:15:44.322Z,8.17
2019-03-02T15:18:44.806Z,8.03
2019-03-02T15:21:30.744Z,7.90
2019-03-02T15:24:21.746Z,7.53
2019-03-02T15:27:03.159Z,7.93
2019-03-02T15:29:46.294Z,12.17
2019-03-02T15:32:46.069Z,20.30
2019-03-02T15:35:43.506Z,17.13
2019-03-02T15:38:36.267Z,11.40
2019-03-02T15:41:33.017Z,11.00
2019-03-02T15:44:21.376Z,9.53
2019-03-02T15:47:13.722Z,9.43
2019-03-02T15:50:04.755Z,12.27
2019-03-02T15:52:47.625Z,11.77
2019-03-02T15:55:45.257Z,7.80
2019-03-02T15:58:25.970Z,7.83
2019-03-02T16:01:11.396Z,7.10
2019-03-02T16:03:53.206Z,6.73
2019-03-02T16:06:42.225Z,6.63
2019-03-02T16:09:39.861Z,7.30
2019-03-02T16:12:15.276Z,7.77
2019-03-02T16:14:52.602Z,7.00
2019-03-02T16:17:50.002Z,6.80
2019-03-02T16:20:38.984Z,11.40
2019-03-02T16:23:20.773Z,5.33
2019-03-02T16:26:16.897Z,5.63
2019-03-02T16:29:02.278Z,4.97
2019-03-02T16:31:41.221Z,5.57
2019-03-02T16:34:39.849Z,4.20
2019-03-02T16:37:22.453Z,3.63
2019-03-02T16:40:02.308Z,3.40
2019-03-02T16:42:50.776Z,3.63
2019-03-02T16:45:33.790Z,3.07
2019-03-02T16:48:21.230Z,3.20
2019-03-02T16:51:01.157Z,2.70
2019-03-02T16:53:39.597Z,2.43
2019-03-02T16:56:21.225Z,3.10
2019-03-02T16:59:06.606Z,2.60
2019-03-02T17:01:46.137Z,2.10
2019-03-02T17:04:33.302Z,2.40
2019-03-02T17:07:24.964Z,2.70
2019-03-02T17:10:23.541Z,3.03
2019-03-02T17:13:12.415Z,3.07
2019-03-02T17:16:06.776Z,2.60
2019-03-02T17:18:45.815Z,2.90
2019-03-02T17:21:39.961Z,3.23
2019-03-02T17:24:16.045Z,2.80
2019-03-02T17:26:54.246Z,3.03
2019-03-02T17:29:48.793Z,2.67
2019-03-02T17:32:35.790Z,3.03
2019-03-02T17:35:25.585Z,3.07
2019-03-02T17:38:08.134Z,2.83
2019-03-02T17:41:07.063Z,3.10
2019-03-02T17:43:46.504Z,2.50
2019-03-02T17:46:38.471Z,3.77
2019-03-02T17:49:29.778Z,2.57
2019-03-02T17:52:09.454Z,2.70
2019-03-02T17:54:53.919Z,2.80
2019-03-02T17:57:54.599Z,3.10
2019-03-02T18:00:42.604Z,4.03
2019-03-02T18:03:29.872Z,4.40
2019-03-02T18:06:15.262Z,3.60
2019-03-02T18:09:15.861Z,4.10
2019-03-02T18:12:01.479Z,4.80
2019-03-02T18:14:42.780Z,4.27
2019-03-02T18:17:40.295Z,3.83
2019-03-02T18:20:10.162Z,3.20
2019-03-02T18:22:39.365Z,2.60
2019-03-02T18:25:11.949Z,2.57
2019-03-02T18:27:41.631Z,2.33
2019-03-02T18:30:14.632Z,1.97
2019-03-02T18:32:45.768Z,2.13
2019-03-02T18:35:15.205Z,2.17
2019-03-02T18:37:44.505Z,2.00
2019-03-02T18:40:14.525Z,1.80
2019-03-02T18:42:44.001Z,3.83
2019-03-02T18:45:14.521Z,14.60
2019-03-02T18:47:43.824Z,2.60
2019-03-02T18:50:25.083Z,2.90
2019-03-02T18:53:02.327Z,3.63
2019-03-02T18:55:32.590Z,2.73
2019-03-02T18:58:02.359Z,3.60
2019-03-02T19:00:37.870Z,2.57
2019-03-02T19:03:08.030Z,2.77
2019-03-02T19:05:37.310Z,2.87
2019-03-02T19:08:06.559Z,3.37
2019-03-02T19:10:39.759Z,2.90
2019-03-02T19:13:08.421Z,3.40
2019-03-02T19:15:38.730Z,3.83
2019-03-02T19:18:08.216Z,2.43
2019-03-02T19:20:37.876Z,3.40
2019-03-02T19:23:07.656Z,3.47
2019-03-02T19:25:36.936Z,3.30
2019-03-02T19:28:06.277Z,3.57
2019-03-02T19:30:35.669Z,3.50
2019-03-02T19:33:05.020Z,3.90
2019-03-02T19:35:34.323Z,3.67
2019-03-02T19:38:05.832Z,4.03
2019-03-02T19:40:34.941Z,3.73
2019-03-02T19:43:04.340Z,3.53
2019-03-02T19:45:33.979Z,3.73
2019-03-02T19:48:03.329Z,4.47
2019-03-02T19:50:32.864Z,4.20
2019-03-02T19:53:02.099Z,5.33
2019-03-02T19:55:31.468Z,5.60
2019-03-02T19:58:01.055Z,6.53
2019-03-02T20:00:30.474Z,7.43
2019-03-02T20:02:59.953Z,5.33
2019-03-02T20:05:29.573Z,8.47
2019-03-02T20:07:59.017Z,6.43
2019-03-02T20:10:28.471Z,4.77
2019-03-02T20:12:58.336Z,8.63
2019-03-02T20:15:27.867Z,5.60
2019-03-02T20:17:57.207Z,4.43
2019-03-02T20:20:26.557Z,4.93
2019-03-02T20:22:56.304Z,4.33
2019-03-02T20:25:25.666Z,3.77
2019-03-02T20:27:54.928Z,3.97
2019-03-02T20:30:24.318Z,3.33
2019-03-02T20:32:53.579Z,3.57
2019-03-02T20:35:23.115Z,2.90
2019-03-02T20:37:52.687Z,3.73
2019-03-02T20:40:22.185Z,4.70
2019-03-02T20:42:51.380Z,4.80
2019-03-02T20:45:21.040Z,4.40
2019-03-02T20:47:50.383Z,4.17
2019-03-02T20:50:20.196Z,4.00
2019-03-02T20:52:49.991Z,3.67
2019-03-02T20:55:19.277Z,3.87
2019-03-02T20:57:50.205Z,4.10
2019-03-02T21:00:22.411Z,4.90
2019-03-02T21:02:52.288Z,4.40
2019-03-02T21:05:22.133Z,5.13
2019-03-02T21:07:51.540Z,4.00
2019-03-02T21:10:22.051Z,5.13
2019-03-02T21:12:51.320Z,5.57
2019-03-02T21:15:25.490Z,4.80
2019-03-02T21:17:56.149Z,5.73
2019-03-02T21:20:25.751Z,5.03
2019-03-02T21:22:55.258Z,6.17
2019-03-02T21:25:24.621Z,5.57
2019-03-02T21:27:53.988Z,5.37
2019-03-02T21:30:23.464Z,6.00
2019-03-02T21:32:53.218Z,6.13
2019-03-02T21:35:22.838Z,6.00
2019-03-02T21:37:52.142Z,6.50
2019-03-02T21:40:22.357Z,5.97
2019-03-02T21:42:51.694Z,6.73
2019-03-02T21:45:22.024Z,6.23
2019-03-02T21:47:52.219Z,5.77
2019-03-02T21:50:26.779Z,6.17
2019-03-02T21:52:56.083Z,6.30
2019-03-02T21:55:26.050Z,5.97
2019-03-02T21:57:55.763Z,5.77
2019-03-02T22:00:26.145Z,5.93
2019-03-02T22:02:55.373Z,5.40
2019-03-02T22:05:24.615Z,5.80
2019-03-02T22:07:53.959Z,5.23
2019-03-02T22:10:26.289Z,4.60
2019-03-02T22:12:55.626Z,5.53
2019-03-02T22:15:24.992Z,4.80
2019-03-02T22:17:54.760Z,4.60
2019-03-02T22:20:24.167Z,4.00
2019-03-02T22:22:53.355Z,4.20
2019-03-02T22:25:22.606Z,4.43
2019-03-02T22:27:51.933Z,3.43
2019-03-02T22:30:22.156Z,3.70
2019-03-02T22:32:51.636Z,3.37
2019-03-02T22:35:21.126Z,3.33
2019-03-02T22:37:50.317Z,3.37
2019-03-02T22:40:20.043Z,3.43
2019-03-02T22:42:49.674Z,3.40
2019-03-02T22:45:19.064Z,3.40
2019-03-02T22:47:49.009Z,3.10
2019-03-02T22:50:19.643Z,3.73
2019-03-02T22:52:49.344Z,3.97
2019-03-02T22:55:18.683Z,3.50
2019-03-02T22:57:48.695Z,3.30
2019-03-02T23:01:06.788Z,3.23
2019-03-02T23:03:34.553Z,3.17
2019-03-02T23:06:03.835Z,3.17
2019-03-02T23:08:33.146Z,3.67
2019-03-02T23:11:02.637Z,3.53
2019-03-02T23:13:31.975Z,3.63
2019-03-02T23:16:01.342Z,3.30
2019-03-02T23:18:30.643Z,3.43
2019-03-02T23:21:00.002Z,3.23
2019-03-02T23:23:29.198Z,3.30
2019-03-02T23:25:58.462Z,3.30
2019-03-02T23:28:27.761Z,3.40
2019-03-02T23:30:57.085Z,3.30
2019-03-02T23:33:26.372Z,3.30
2019-03-02T23:35:55.643Z,2.93
2019-03-02T23:38:24.926Z,3.47
2019-03-02T23:40:54.348Z,3.07
2019-03-02T23:43:23.619Z,3.00
2019-03-02T23:45:52.987Z,3.23
2019-03-02T23:48:22.351Z,2.93
2019-03-02T23:50:51.858Z,2.80
2019-03-02T23:53:21.548Z,3.30
2019-03-02T23:55:50.774Z,3.20
2019-03-02T23:58:19.988Z,2.77
